Terminal Aerodrome Forecast
Issued by NWS Wichita, KS

Home | Current Version | Previous Version | Graphics & Text | Print | Product List | Glossary On
Versions: 1 2 3 4 5 6 7 8 9 10 11 12 13 14 15 16 17
807
FTUS43 KICT 212322
TAFICT
TAF
KICT 212322Z 2200/2224 15006KT P6SM SCT250
     FM221400 17008KT P6SM SCT250
     FM221900 18013G20KT P6SM SCT250=

USA.gov is the U.S. government's official web portal to all federal, state and local government web resources and services.